sensor_id;sensor_type;location;lat;lon;timestamp;temperature;humidity
23335;DHT22;11839;48.598;8.870;2023-03-11T00:02:03;4.00;99.70
23335;DHT22;11839;48.598;8.870;2023-03-11T00:04:30;3.90;99.50
23335;DHT22;11839;48.598;8.870;2023-03-11T00:06:58;4.00;99.60
23335;DHT22;11839;48.598;8.870;2023-03-11T00:09:25;3.80;99.90
23335;DHT22;11839;48.598;8.870;2023-03-11T00:11:52;4.00;99.90
23335;DHT22;11839;48.598;8.870;2023-03-11T00:14:18;4.10;99.90
23335;DHT22;11839;48.598;8.870;2023-03-11T00:16:45;4.00;99.90
23335;DHT22;11839;48.598;8.870;2023-03-11T00:19:12;4.00;99.90
23335;DHT22;11839;48.598;8.870;2023-03-11T00:21:39;4.40;99.90
23335;DHT22;11839;48.598;8.870;2023-03-11T00:24:07;4.30;99.50
23335;DHT22;11839;48.598;8.870;2023-03-11T00:26:34;4.60;99.20
23335;DHT22;11839;48.598;8.870;2023-03-11T00:29:01;4.70;99.90
23335;DHT22;11839;48.598;8.870;2023-03-11T00:31:28;5.00;99.90
23335;DHT22;11839;48.598;8.870;2023-03-11T00:33:55;5.00;99.50
23335;DHT22;11839;48.598;8.870;2023-03-11T00:36:23;5.00;98.90
23335;DHT22;11839;48.598;8.870;2023-03-11T00:38:53;4.70;99.10
23335;DHT22;11839;48.598;8.870;2023-03-11T00:41:21;4.70;99.40
23335;DHT22;11839;48.598;8.870;2023-03-11T00:43:48;4.40;99.80
23335;DHT22;11839;48.598;8.870;2023-03-11T00:46:15;4.20;99.60
23335;DHT22;11839;48.598;8.870;2023-03-11T00:48:42;4.20;99.90
23335;DHT22;11839;48.598;8.870;2023-03-11T00:51:11;4.20;99.50
23335;DHT22;11839;48.598;8.870;2023-03-11T00:53:39;4.20;99.90
23335;DHT22;11839;48.598;8.870;2023-03-11T00:56:06;4.40;99.50
23335;DHT22;11839;48.598;8.870;2023-03-11T00:58:35;4.10;99.60
23335;DHT22;11839;48.598;8.870;2023-03-11T01:01:06;4.40;99.60
23335;DHT22;11839;48.598;8.870;2023-03-11T01:03:33;4.30;99.80
23335;DHT22;11839;48.598;8.870;2023-03-11T01:06:00;4.30;99.90
23335;DHT22;11839;48.598;8.870;2023-03-11T01:08:27;4.20;99.90
23335;DHT22;11839;48.598;8.870;2023-03-11T01:10:56;4.20;99.90
23335;DHT22;11839;48.598;8.870;2023-03-11T01:13:24;4.60;99.80
23335;DHT22;11839;48.598;8.870;2023-03-11T01:15:52;4.70;99.80
23335;DHT22;11839;48.598;8.870;2023-03-11T01:18:19;4.50;99.90
23335;DHT22;11839;48.598;8.870;2023-03-11T01:20:47;4.20;99.90
23335;DHT22;11839;48.598;8.870;2023-03-11T01:23:15;4.00;99.90
23335;DHT22;11839;48.598;8.870;2023-03-11T01:25:42;3.90;99.90
23335;DHT22;11839;48.598;8.870;2023-03-11T01:28:09;3.90;99.90
23335;DHT22;11839;48.598;8.870;2023-03-11T01:30:37;3.90;99.90
23335;DHT22;11839;48.598;8.870;2023-03-11T01:33:06;3.70;99.90
23335;DHT22;11839;48.598;8.870;2023-03-11T01:35:34;3.70;99.90
23335;DHT22;11839;48.598;8.870;2023-03-11T01:38:00;3.50;99.90
23335;DHT22;11839;48.598;8.870;2023-03-11T01:40:29;3.50;99.90
23335;DHT22;11839;48.598;8.870;2023-03-11T01:42:57;3.70;99.90
23335;DHT22;11839;48.598;8.870;2023-03-11T01:45:35;3.80;99.90
23335;DHT22;11839;48.598;8.870;2023-03-11T01:48:06;3.80;99.90
23335;DHT22;11839;48.598;8.870;2023-03-11T01:50:36;3.90;99.90
23335;DHT22;11839;48.598;8.870;2023-03-11T01:53:04;4.00;99.90
23335;DHT22;11839;48.598;8.870;2023-03-11T01:55:32;3.90;99.50
23335;DHT22;11839;48.598;8.870;2023-03-11T01:58:00;3.90;99.90
23335;DHT22;11839;48.598;8.870;2023-03-11T02:00:28;3.80;99.50
23335;DHT22;11839;48.598;8.870;2023-03-11T02:02:57;3.80;99.70
23335;DHT22;11839;48.598;8.870;2023-03-11T02:05:26;4.20;99.30
23335;DHT22;11839;48.598;8.870;2023-03-11T02:07:54;4.10;99.10
23335;DHT22;11839;48.598;8.870;2023-03-11T02:10:21;4.00;99.20
23335;DHT22;11839;48.598;8.870;2023-03-11T02:12:49;3.80;99.30
23335;DHT22;11839;48.598;8.870;2023-03-11T02:15:16;3.80;99.60
23335;DHT22;11839;48.598;8.870;2023-03-11T02:17:43;3.70;99.40
23335;DHT22;11839;48.598;8.870;2023-03-11T02:20:18;3.80;99.10
23335;DHT22;11839;48.598;8.870;2023-03-11T02:22:48;3.80;99.00
23335;DHT22;11839;48.598;8.870;2023-03-11T02:25:21;3.50;98.50
23335;DHT22;11839;48.598;8.870;2023-03-11T02:27:53;3.30;99.20
23335;DHT22;11839;48.598;8.870;2023-03-11T02:30:22;3.50;98.90
23335;DHT22;11839;48.598;8.870;2023-03-11T02:32:49;3.60;98.60
23335;DHT22;11839;48.598;8.870;2023-03-11T02:35:16;3.70;98.60
23335;DHT22;11839;48.598;8.870;2023-03-11T02:37:44;3.50;98.30
23335;DHT22;11839;48.598;8.870;2023-03-11T02:40:37;3.50;99.00
23335;DHT22;11839;48.598;8.870;2023-03-11T02:43:09;3.70;98.80
23335;DHT22;11839;48.598;8.870;2023-03-11T02:45:38;3.90;98.70
23335;DHT22;11839;48.598;8.870;2023-03-11T02:48:06;3.90;98.90
23335;DHT22;11839;48.598;8.870;2023-03-11T02:50:34;3.70;98.30
23335;DHT22;11839;48.598;8.870;2023-03-11T02:53:02;3.70;99.30
23335;DHT22;11839;48.598;8.870;2023-03-11T02:55:29;3.80;98.80
23335;DHT22;11839;48.598;8.870;2023-03-11T02:57:55;3.30;98.10
23335;DHT22;11839;48.598;8.870;2023-03-11T03:00:24;3.20;98.70
23335;DHT22;11839;48.598;8.870;2023-03-11T03:02:51;3.40;98.70
23335;DHT22;11839;48.598;8.870;2023-03-11T03:05:18;3.30;98.30
23335;DHT22;11839;48.598;8.870;2023-03-11T03:07:46;3.20;98.70
23335;DHT22;11839;48.598;8.870;2023-03-11T03:10:14;3.30;98.70
23335;DHT22;11839;48.598;8.870;2023-03-11T03:12:41;3.10;98.90
23335;DHT22;11839;48.598;8.870;2023-03-11T03:15:09;2.90;98.80
23335;DHT22;11839;48.598;8.870;2023-03-11T03:17:37;2.70;99.20
23335;DHT22;11839;48.598;8.870;2023-03-11T03:20:06;2.80;99.00
23335;DHT22;11839;48.598;8.870;2023-03-11T03:22:36;2.80;99.30
23335;DHT22;11839;48.598;8.870;2023-03-11T03:25:04;2.70;98.80
23335;DHT22;11839;48.598;8.870;2023-03-11T03:27:32;2.60;98.90
23335;DHT22;11839;48.598;8.870;2023-03-11T03:29:59;2.60;98.70
23335;DHT22;11839;48.598;8.870;2023-03-11T03:32:26;2.60;98.70
23335;DHT22;11839;48.598;8.870;2023-03-11T03:34:54;2.60;98.90
23335;DHT22;11839;48.598;8.870;2023-03-11T03:37:24;2.70;98.40
23335;DHT22;11839;48.598;8.870;2023-03-11T03:39:51;2.60;98.80
23335;DHT22;11839;48.598;8.870;2023-03-11T03:42:17;2.60;98.40
23335;DHT22;11839;48.598;8.870;2023-03-11T03:44:44;2.60;98.60
23335;DHT22;11839;48.598;8.870;2023-03-11T03:47:11;2.50;98.60
23335;DHT22;11839;48.598;8.870;2023-03-11T03:49:38;2.30;98.80
23335;DHT22;11839;48.598;8.870;2023-03-11T03:52:06;2.50;98.90
23335;DHT22;11839;48.598;8.870;2023-03-11T03:54:33;2.60;98.90
23335;DHT22;11839;48.598;8.870;2023-03-11T03:57:00;2.60;98.20
23335;DHT22;11839;48.598;8.870;2023-03-11T03:59:27;2.80;97.90
23335;DHT22;11839;48.598;8.870;2023-03-11T04:01:54;2.70;97.90
23335;DHT22;11839;48.598;8.870;2023-03-11T04:04:21;2.80;97.90
23335;DHT22;11839;48.598;8.870;2023-03-11T04:06:48;2.70;97.60
23335;DHT22;11839;48.598;8.870;2023-03-11T04:09:16;2.70;97.60
23335;DHT22;11839;48.598;8.870;2023-03-11T04:11:42;2.90;97.70
23335;DHT22;11839;48.598;8.870;2023-03-11T04:14:09;2.90;97.70
23335;DHT22;11839;48.598;8.870;2023-03-11T04:16:36;2.90;97.70
23335;DHT22;11839;48.598;8.870;2023-03-11T04:19:03;2.80;97.70
23335;DHT22;11839;48.598;8.870;2023-03-11T04:21:30;2.60;98.30
23335;DHT22;11839;48.598;8.870;2023-03-11T04:23:57;2.80;98.20
23335;DHT22;11839;48.598;8.870;2023-03-11T04:26:25;2.90;97.70
23335;DHT22;11839;48.598;8.870;2023-03-11T04:28:53;2.70;97.80
23335;DHT22;11839;48.598;8.870;2023-03-11T04:31:19;2.70;98.50
23335;DHT22;11839;48.598;8.870;2023-03-11T04:33:46;2.70;98.50
23335;DHT22;11839;48.598;8.870;2023-03-11T04:36:13;2.50;98.30
23335;DHT22;11839;48.598;8.870;2023-03-11T04:38:40;2.50;97.50
23335;DHT22;11839;48.598;8.870;2023-03-11T04:41:07;2.20;97.60
23335;DHT22;11839;48.598;8.870;2023-03-11T04:43:35;2.00;98.20
23335;DHT22;11839;48.598;8.870;2023-03-11T04:46:02;2.10;98.20
23335;DHT22;11839;48.598;8.870;2023-03-11T04:48:28;2.10;98.60
23335;DHT22;11839;48.598;8.870;2023-03-11T04:50:55;2.30;98.20
23335;DHT22;11839;48.598;8.870;2023-03-11T04:53:22;2.60;97.90
23335;DHT22;11839;48.598;8.870;2023-03-11T04:55:49;2.50;97.50
23335;DHT22;11839;48.598;8.870;2023-03-11T04:58:16;2.50;97.60
23335;DHT22;11839;48.598;8.870;2023-03-11T05:00:45;2.60;97.50
23335;DHT22;11839;48.598;8.870;2023-03-11T05:03:11;2.40;97.70
23335;DHT22;11839;48.598;8.870;2023-03-11T05:05:38;2.30;97.70
23335;DHT22;11839;48.598;8.870;2023-03-11T05:08:05;2.20;98.20
23335;DHT22;11839;48.598;8.870;2023-03-11T05:10:32;2.20;98.20
23335;DHT22;11839;48.598;8.870;2023-03-11T05:12:59;2.30;98.10
23335;DHT22;11839;48.598;8.870;2023-03-11T05:15:25;2.20;97.60
23335;DHT22;11839;48.598;8.870;2023-03-11T05:17:54;2.00;98.20
23335;DHT22;11839;48.598;8.870;2023-03-11T05:20:21;2.10;98.50
23335;DHT22;11839;48.598;8.870;2023-03-11T05:22:48;2.20;98.20
23335;DHT22;11839;48.598;8.870;2023-03-11T05:25:15;2.30;98.30
23335;DHT22;11839;48.598;8.870;2023-03-11T05:27:42;2.10;98.70
23335;DHT22;11839;48.598;8.870;2023-03-11T05:30:09;2.30;98.80
23335;DHT22;11839;48.598;8.870;2023-03-11T05:32:36;2.20;98.70
23335;DHT22;11839;48.598;8.870;2023-03-11T05:35:05;2.20;98.80
23335;DHT22;11839;48.598;8.870;2023-03-11T05:37:32;2.40;98.80
23335;DHT22;11839;48.598;8.870;2023-03-11T05:40:00;2.50;99.10
23335;DHT22;11839;48.598;8.870;2023-03-11T05:42:26;2.50;98.70
23335;DHT22;11839;48.598;8.870;2023-03-11T05:44:53;2.60;97.90
23335;DHT22;11839;48.598;8.870;2023-03-11T05:47:20;2.50;98.70
23335;DHT22;11839;48.598;8.870;2023-03-11T05:49:47;2.70;98.50
23335;DHT22;11839;48.598;8.870;2023-03-11T05:52:16;2.70;98.20
23335;DHT22;11839;48.598;8.870;2023-03-11T05:54:43;2.50;98.20
23335;DHT22;11839;48.598;8.870;2023-03-11T05:57:09;2.40;98.30
23335;DHT22;11839;48.598;8.870;2023-03-11T05:59:36;2.20;98.60
23335;DHT22;11839;48.598;8.870;2023-03-11T06:02:03;2.20;99.10
23335;DHT22;11839;48.598;8.870;2023-03-11T06:04:30;2.40;98.90
23335;DHT22;11839;48.598;8.870;2023-03-11T06:06:57;2.50;99.20
23335;DHT22;11839;48.598;8.870;2023-03-11T06:09:25;2.50;99.30
23335;DHT22;11839;48.598;8.870;2023-03-11T06:11:51;2.10;99.50
23335;DHT22;11839;48.598;8.870;2023-03-11T06:14:18;2.30;99.40
23335;DHT22;11839;48.598;8.870;2023-03-11T06:16:45;2.30;99.30
23335;DHT22;11839;48.598;8.870;2023-03-11T06:19:12;2.20;99.50
23335;DHT22;11839;48.598;8.870;2023-03-11T06:21:39;2.40;99.10
23335;DHT22;11839;48.598;8.870;2023-03-11T06:24:06;2.50;99.00
23335;DHT22;11839;48.598;8.870;2023-03-11T06:26:34;2.50;99.20
23335;DHT22;11839;48.598;8.870;2023-03-11T06:29:01;2.60;98.70
23335;DHT22;11839;48.598;8.870;2023-03-11T06:31:28;2.40;99.10
23335;DHT22;11839;48.598;8.870;2023-03-11T06:33:55;2.80;98.80
23335;DHT22;11839;48.598;8.870;2023-03-11T06:36:24;3.00;98.50
23335;DHT22;11839;48.598;8.870;2023-03-11T06:38:51;2.80;98.40
23335;DHT22;11839;48.598;8.870;2023-03-11T06:41:18;2.60;98.70
23335;DHT22;11839;48.598;8.870;2023-03-11T06:43:47;2.80;98.70
23335;DHT22;11839;48.598;8.870;2023-03-11T06:46:15;2.90;98.60
23335;DHT22;11839;48.598;8.870;2023-03-11T06:48:43;2.80;98.90
23335;DHT22;11839;48.598;8.870;2023-03-11T06:51:10;3.00;98.50
23335;DHT22;11839;48.598;8.870;2023-03-11T06:53:37;3.10;97.80
23335;DHT22;11839;48.598;8.870;2023-03-11T06:56:07;3.20;97.80
23335;DHT22;11839;48.598;8.870;2023-03-11T06:58:35;3.50;97.90
23335;DHT22;11839;48.598;8.870;2023-03-11T07:01:05;3.40;97.80
23335;DHT22;11839;48.598;8.870;2023-03-11T07:03:33;3.20;97.80
23335;DHT22;11839;48.598;8.870;2023-03-11T07:06:00;2.90;97.70
23335;DHT22;11839;48.598;8.870;2023-03-11T07:08:27;3.20;97.80
23335;DHT22;11839;48.598;8.870;2023-03-11T07:11:02;3.40;97.20
23335;DHT22;11839;48.598;8.870;2023-03-11T07:13:30;3.80;97.00
23335;DHT22;11839;48.598;8.870;2023-03-11T07:16:01;4.10;96.30
23335;DHT22;11839;48.598;8.870;2023-03-11T07:18:29;4.20;96.70
23335;DHT22;11839;48.598;8.870;2023-03-11T07:20:56;3.90;95.60
23335;DHT22;11839;48.598;8.870;2023-03-11T07:23:23;3.20;96.70
23335;DHT22;11839;48.598;8.870;2023-03-11T07:25:50;3.40;98.20
23335;DHT22;11839;48.598;8.870;2023-03-11T07:28:17;3.60;97.80
23335;DHT22;11839;48.598;8.870;2023-03-11T07:30:44;3.80;96.50
23335;DHT22;11839;48.598;8.870;2023-03-11T07:33:11;4.00;96.90
23335;DHT22;11839;48.598;8.870;2023-03-11T07:35:40;4.10;97.10
23335;DHT22;11839;48.598;8.870;2023-03-11T07:38:10;4.10;96.10
23335;DHT22;11839;48.598;8.870;2023-03-11T07:40:37;3.90;96.40
23335;DHT22;11839;48.598;8.870;2023-03-11T07:43:03;4.00;96.40
23335;DHT22;11839;48.598;8.870;2023-03-11T07:45:30;3.90;96.30
23335;DHT22;11839;48.598;8.870;2023-03-11T07:47:57;3.40;96.40
23335;DHT22;11839;48.598;8.870;2023-03-11T07:50:24;3.20;97.00
23335;DHT22;11839;48.598;8.870;2023-03-11T07:52:52;3.30;97.20
23335;DHT22;11839;48.598;8.870;2023-03-11T07:55:19;3.40;97.10
23335;DHT22;11839;48.598;8.870;2023-03-11T07:57:46;3.70;96.80
23335;DHT22;11839;48.598;8.870;2023-03-11T08:00:16;4.00;96.00
23335;DHT22;11839;48.598;8.870;2023-03-11T08:02:43;3.50;96.20
23335;DHT22;11839;48.598;8.870;2023-03-11T08:05:10;3.20;96.80
23335;DHT22;11839;48.598;8.870;2023-03-11T08:07:37;3.20;96.40
23335;DHT22;11839;48.598;8.870;2023-03-11T08:10:06;3.30;96.50
23335;DHT22;11839;48.598;8.870;2023-03-11T08:12:33;3.60;96.50
23335;DHT22;11839;48.598;8.870;2023-03-11T08:15:00;3.60;96.50
23335;DHT22;11839;48.598;8.870;2023-03-11T08:17:27;3.80;96.40
23335;DHT22;11839;48.598;8.870;2023-03-11T08:19:54;4.30;96.50
23335;DHT22;11839;48.598;8.870;2023-03-11T08:22:20;4.30;95.50
23335;DHT22;11839;48.598;8.870;2023-03-11T08:24:51;4.20;95.10
23335;DHT22;11839;48.598;8.870;2023-03-11T08:27:19;4.20;94.90
23335;DHT22;11839;48.598;8.870;2023-03-11T08:29:46;4.20;95.00
23335;DHT22;11839;48.598;8.870;2023-03-11T08:32:13;4.20;95.20
23335;DHT22;11839;48.598;8.870;2023-03-11T08:34:39;3.80;95.50
23335;DHT22;11839;48.598;8.870;2023-03-11T08:37:06;4.10;95.60
23335;DHT22;11839;48.598;8.870;2023-03-11T08:39:33;4.10;96.00
23335;DHT22;11839;48.598;8.870;2023-03-11T08:42:00;4.60;94.90
23335;DHT22;11839;48.598;8.870;2023-03-11T08:44:28;4.70;94.50
23335;DHT22;11839;48.598;8.870;2023-03-11T08:46:55;4.30;94.10
23335;DHT22;11839;48.598;8.870;2023-03-11T08:49:22;4.20;94.50
23335;DHT22;11839;48.598;8.870;2023-03-11T08:51:49;4.20;94.70
23335;DHT22;11839;48.598;8.870;2023-03-11T08:54:16;4.50;94.50
23335;DHT22;11839;48.598;8.870;2023-03-11T08:56:42;4.50;94.20
23335;DHT22;11839;48.598;8.870;2023-03-11T08:59:09;4.30;94.60
23335;DHT22;11839;48.598;8.870;2023-03-11T09:01:37;4.50;95.40
23335;DHT22;11839;48.598;8.870;2023-03-11T09:04:04;5.10;94.50
23335;DHT22;11839;48.598;8.870;2023-03-11T09:06:31;5.80;93.80
23335;DHT22;11839;48.598;8.870;2023-03-11T09:08:58;5.70;93.50
23335;DHT22;11839;48.598;8.870;2023-03-11T09:11:25;5.70;93.20
23335;DHT22;11839;48.598;8.870;2023-03-11T09:13:52;5.70;93.10
23335;DHT22;11839;48.598;8.870;2023-03-11T09:16:20;6.10;92.40
23335;DHT22;11839;48.598;8.870;2023-03-11T09:18:49;5.70;92.60
23335;DHT22;11839;48.598;8.870;2023-03-11T09:21:16;5.60;92.20
23335;DHT22;11839;48.598;8.870;2023-03-11T09:23:42;5.90;93.30
23335;DHT22;11839;48.598;8.870;2023-03-11T09:26:09;6.10;91.70
23335;DHT22;11839;48.598;8.870;2023-03-11T09:28:36;6.10;93.40
23335;DHT22;11839;48.598;8.870;2023-03-11T09:31:03;6.30;92.40
23335;DHT22;11839;48.598;8.870;2023-03-11T09:33:30;6.40;91.70
23335;DHT22;11839;48.598;8.870;2023-03-11T09:35:58;6.90;90.50
23335;DHT22;11839;48.598;8.870;2023-03-11T09:38:25;6.90;90.60
23335;DHT22;11839;48.598;8.870;2023-03-11T09:40:57;7.00;89.30
23335;DHT22;11839;48.598;8.870;2023-03-11T09:43:36;7.10;89.20
23335;DHT22;11839;48.598;8.870;2023-03-11T09:46:25;6.40;90.50
23335;DHT22;11839;48.598;8.870;2023-03-11T09:48:59;5.60;90.50
23335;DHT22;11839;48.598;8.870;2023-03-11T09:51:33;5.70;91.50
23335;DHT22;11839;48.598;8.870;2023-03-11T09:54:03;6.30;90.90
23335;DHT22;11839;48.598;8.870;2023-03-11T09:56:33;6.10;90.30
23335;DHT22;11839;48.598;8.870;2023-03-11T09:59:05;6.10;90.10
23335;DHT22;11839;48.598;8.870;2023-03-11T10:01:34;5.90;90.40
23335;DHT22;11839;48.598;8.870;2023-03-11T10:04:07;6.20;90.60
23335;DHT22;11839;48.598;8.870;2023-03-11T10:06:37;6.20;90.20
23335;DHT22;11839;48.598;8.870;2023-03-11T10:09:18;6.60;91.00
23335;DHT22;11839;48.598;8.870;2023-03-11T10:14:47;7.60;86.70
23335;DHT22;11839;48.598;8.870;2023-03-11T10:17:25;6.90;88.10
23335;DHT22;11839;48.598;8.870;2023-03-11T10:20:01;7.20;88.70
23335;DHT22;11839;48.598;8.870;2023-03-11T10:22:35;7.00;86.40
23335;DHT22;11839;48.598;8.870;2023-03-11T10:25:11;7.20;86.30
23335;DHT22;11839;48.598;8.870;2023-03-11T10:27:42;7.30;86.40
23335;DHT22;11839;48.598;8.870;2023-03-11T10:30:22;7.60;85.00
23335;DHT22;11839;48.598;8.870;2023-03-11T10:32:55;7.40;82.80
23335;DHT22;11839;48.598;8.870;2023-03-11T10:35:35;6.50;84.00
23335;DHT22;11839;48.598;8.870;2023-03-11T10:38:11;6.30;85.00
23335;DHT22;11839;48.598;8.870;2023-03-11T10:40:40;6.20;85.30
23335;DHT22;11839;48.598;8.870;2023-03-11T10:43:12;5.80;89.20
23335;DHT22;11839;48.598;8.870;2023-03-11T10:45:41;6.20;89.10
23335;DHT22;11839;48.598;8.870;2023-03-11T10:48:11;6.30;90.10
23335;DHT22;11839;48.598;8.870;2023-03-11T10:50:45;6.50;88.50
23335;DHT22;11839;48.598;8.870;2023-03-11T10:53:15;6.40;87.80
23335;DHT22;11839;48.598;8.870;2023-03-11T10:55:46;6.30;89.00
23335;DHT22;11839;48.598;8.870;2023-03-11T10:58:15;6.60;88.60
23335;DHT22;11839;48.598;8.870;2023-03-11T11:00:42;6.60;88.00
23335;DHT22;11839;48.598;8.870;2023-03-11T11:03:20;6.30;87.20
23335;DHT22;11839;48.598;8.870;2023-03-11T11:05:57;6.20;88.20
23335;DHT22;11839;48.598;8.870;2023-03-11T11:08:25;6.60;88.90
23335;DHT22;11839;48.598;8.870;2023-03-11T11:10:53;7.00;84.70
23335;DHT22;11839;48.598;8.870;2023-03-11T11:13:21;6.80;85.10
23335;DHT22;11839;48.598;8.870;2023-03-11T11:15:54;7.40;85.30
23335;DHT22;11839;48.598;8.870;2023-03-11T11:18:23;7.90;86.30
23335;DHT22;11839;48.598;8.870;2023-03-11T11:20:56;8.30;84.60
23335;DHT22;11839;48.598;8.870;2023-03-11T11:23:31;8.20;84.90
23335;DHT22;11839;48.598;8.870;2023-03-11T11:26:00;8.40;84.20
23335;DHT22;11839;48.598;8.870;2023-03-11T11:28:30;8.30;82.50
23335;DHT22;11839;48.598;8.870;2023-03-11T11:30:59;8.20;80.40
23335;DHT22;11839;48.598;8.870;2023-03-11T11:33:28;7.80;83.60
23335;DHT22;11839;48.598;8.870;2023-03-11T11:35:57;8.00;83.50
23335;DHT22;11839;48.598;8.870;2023-03-11T11:38:26;8.40;82.70
23335;DHT22;11839;48.598;8.870;2023-03-11T11:40:55;8.10;80.60
23335;DHT22;11839;48.598;8.870;2023-03-11T11:43:35;8.10;80.00
23335;DHT22;11839;48.598;8.870;2023-03-11T11:46:09;7.90;78.80
23335;DHT22;11839;48.598;8.870;2023-03-11T11:48:45;8.30;76.50
23335;DHT22;11839;48.598;8.870;2023-03-11T11:51:19;8.30;78.60
23335;DHT22;11839;48.598;8.870;2023-03-11T11:53:53;8.60;77.50
23335;DHT22;11839;48.598;8.870;2023-03-11T11:56:23;8.60;78.00
23335;DHT22;11839;48.598;8.870;2023-03-11T11:58:50;9.10;79.30
23335;DHT22;11839;48.598;8.870;2023-03-11T12:01:25;8.90;79.80
23335;DHT22;11839;48.598;8.870;2023-03-11T12:04:04;8.70;82.60
23335;DHT22;11839;48.598;8.870;2023-03-11T12:06:43;8.30;79.70
23335;DHT22;11839;48.598;8.870;2023-03-11T12:09:20;8.20;83.60
23335;DHT22;11839;48.598;8.870;2023-03-11T12:11:56;8.40;85.20
23335;DHT22;11839;48.598;8.870;2023-03-11T12:14:27;8.90;83.90
23335;DHT22;11839;48.598;8.870;2023-03-11T12:16:58;8.60;79.30
23335;DHT22;11839;48.598;8.870;2023-03-11T12:19:37;8.40;84.50
23335;DHT22;11839;48.598;8.870;2023-03-11T12:22:25;8.00;81.50
23335;DHT22;11839;48.598;8.870;2023-03-11T12:25:16;8.00;81.70
23335;DHT22;11839;48.598;8.870;2023-03-11T12:27:48;8.20;82.00
23335;DHT22;11839;48.598;8.870;2023-03-11T12:30:20;8.20;81.00
23335;DHT22;11839;48.598;8.870;2023-03-11T12:32:53;8.20;82.00
23335;DHT22;11839;48.598;8.870;2023-03-11T12:35:23;8.50;83.20
23335;DHT22;11839;48.598;8.870;2023-03-11T12:38:03;8.90;82.20
23335;DHT22;11839;48.598;8.870;2023-03-11T12:41:06;8.70;80.50
23335;DHT22;11839;48.598;8.870;2023-03-11T12:44:21;8.60;80.60
23335;DHT22;11839;48.598;8.870;2023-03-11T12:52:57;8.60;83.40
23335;DHT22;11839;48.598;8.870;2023-03-11T12:55:32;8.70;81.50
23335;DHT22;11839;48.598;8.870;2023-03-11T12:58:25;8.70;81.10
23335;DHT22;11839;48.598;8.870;2023-03-11T13:01:14;8.50;79.60
23335;DHT22;11839;48.598;8.870;2023-03-11T13:03:56;8.30;80.50
23335;DHT22;11839;48.598;8.870;2023-03-11T13:06:37;8.20;79.30
23335;DHT22;11839;48.598;8.870;2023-03-11T13:09:12;8.40;79.60
23335;DHT22;11839;48.598;8.870;2023-03-11T13:11:43;9.10;79.20
23335;DHT22;11839;48.598;8.870;2023-03-11T13:14:22;8.90;79.90
23335;DHT22;11839;48.598;8.870;2023-03-11T13:16:51;8.80;80.10
23335;DHT22;11839;48.598;8.870;2023-03-11T13:19:37;8.60;80.30
23335;DHT22;11839;48.598;8.870;2023-03-11T13:22:41;8.80;79.50
23335;DHT22;11839;48.598;8.870;2023-03-11T13:25:31;8.60;77.70
23335;DHT22;11839;48.598;8.870;2023-03-11T13:28:26;8.20;78.70
23335;DHT22;11839;48.598;8.870;2023-03-11T13:31:12;8.30;79.00
23335;DHT22;11839;48.598;8.870;2023-03-11T13:33:47;8.50;80.70
23335;DHT22;11839;48.598;8.870;2023-03-11T13:36:23;8.60;80.10
23335;DHT22;11839;48.598;8.870;2023-03-11T13:39:07;9.20;79.50
23335;DHT22;11839;48.598;8.870;2023-03-11T13:41:41;9.00;78.80
23335;DHT22;11839;48.598;8.870;2023-03-11T13:44:14;9.10;80.40
23335;DHT22;11839;48.598;8.870;2023-03-11T13:46:46;8.40;77.70
23335;DHT22;11839;48.598;8.870;2023-03-11T13:49:24;8.20;81.60
23335;DHT22;11839;48.598;8.870;2023-03-11T13:51:54;8.80;79.90
23335;DHT22;11839;48.598;8.870;2023-03-11T13:54:43;8.90;78.70
23335;DHT22;11839;48.598;8.870;2023-03-11T13:57:22;8.80;79.60
23335;DHT22;11839;48.598;8.870;2023-03-11T13:59:51;9.10;78.20
23335;DHT22;11839;48.598;8.870;2023-03-11T14:02:22;9.00;77.20
23335;DHT22;11839;48.598;8.870;2023-03-11T14:04:52;8.80;77.30
23335;DHT22;11839;48.598;8.870;2023-03-11T14:07:26;9.00;78.40
23335;DHT22;11839;48.598;8.870;2023-03-11T14:10:16;9.40;76.60
23335;DHT22;11839;48.598;8.870;2023-03-11T14:12:43;9.40;75.40
23335;DHT22;11839;48.598;8.870;2023-03-11T14:15:13;9.40;74.30
23335;DHT22;11839;48.598;8.870;2023-03-11T14:17:43;9.40;75.20
23335;DHT22;11839;48.598;8.870;2023-03-11T14:20:13;9.10;76.10
23335;DHT22;11839;48.598;8.870;2023-03-11T14:22:43;9.50;76.90
23335;DHT22;11839;48.598;8.870;2023-03-11T14:25:17;9.70;74.30
23335;DHT22;11839;48.598;8.870;2023-03-11T14:27:49;9.90;74.60
23335;DHT22;11839;48.598;8.870;2023-03-11T14:30:22;9.70;74.80
23335;DHT22;11839;48.598;8.870;2023-03-11T14:33:01;9.90;74.70
23335;DHT22;11839;48.598;8.870;2023-03-11T14:35:31;10.00;73.20
23335;DHT22;11839;48.598;8.870;2023-03-11T14:37:58;9.90;73.00
23335;DHT22;11839;48.598;8.870;2023-03-11T14:40:27;9.90;72.20
23335;DHT22;11839;48.598;8.870;2023-03-11T14:42:57;10.00;73.20
23335;DHT22;11839;48.598;8.870;2023-03-11T14:45:28;9.80;73.90
23335;DHT22;11839;48.598;8.870;2023-03-11T14:48:00;9.70;73.90
23335;DHT22;11839;48.598;8.870;2023-03-11T14:50:30;9.50;75.50
23335;DHT22;11839;48.598;8.870;2023-03-11T14:53:02;9.80;75.20
23335;DHT22;11839;48.598;8.870;2023-03-11T14:55:33;9.40;76.30
23335;DHT22;11839;48.598;8.870;2023-03-11T14:58:03;9.10;76.10
23335;DHT22;11839;48.598;8.870;2023-03-11T15:00:35;9.30;76.60
23335;DHT22;11839;48.598;8.870;2023-03-11T15:03:13;9.60;75.40
23335;DHT22;11839;48.598;8.870;2023-03-11T15:05:46;9.80;73.30
23335;DHT22;11839;48.598;8.870;2023-03-11T15:08:17;9.70;75.50
23335;DHT22;11839;48.598;8.870;2023-03-11T15:11:12;9.70;74.50
23335;DHT22;11839;48.598;8.870;2023-03-11T15:13:44;9.50;73.70
23335;DHT22;11839;48.598;8.870;2023-03-11T15:16:22;9.40;74.10
23335;DHT22;11839;48.598;8.870;2023-03-11T15:18:51;9.50;75.90
23335;DHT22;11839;48.598;8.870;2023-03-11T15:21:20;9.10;76.40
23335;DHT22;11839;48.598;8.870;2023-03-11T15:23:49;8.50;76.70
23335;DHT22;11839;48.598;8.870;2023-03-11T15:26:22;8.40;77.80
23335;DHT22;11839;48.598;8.870;2023-03-11T15:28:54;8.40;77.40
23335;DHT22;11839;48.598;8.870;2023-03-11T15:31:33;8.70;77.60
23335;DHT22;11839;48.598;8.870;2023-03-11T15:34:10;8.90;76.30
23335;DHT22;11839;48.598;8.870;2023-03-11T15:36:42;8.80;77.00
23335;DHT22;11839;48.598;8.870;2023-03-11T15:39:12;8.80;78.40
23335;DHT22;11839;48.598;8.870;2023-03-11T15:41:39;8.40;76.40
23335;DHT22;11839;48.598;8.870;2023-03-11T15:44:21;8.10;76.70
23335;DHT22;11839;48.598;8.870;2023-03-11T15:46:49;8.10;78.00
23335;DHT22;11839;48.598;8.870;2023-03-11T15:49:17;7.90;78.40
23335;DHT22;11839;48.598;8.870;2023-03-11T15:51:44;8.10;78.30
23335;DHT22;11839;48.598;8.870;2023-03-11T15:54:10;8.30;78.60
23335;DHT22;11839;48.598;8.870;2023-03-11T15:56:37;8.40;78.20
23335;DHT22;11839;48.598;8.870;2023-03-11T15:59:05;8.30;79.10
23335;DHT22;11839;48.598;8.870;2023-03-11T16:01:32;8.00;79.10
23335;DHT22;11839;48.598;8.870;2023-03-11T16:03:58;8.00;80.50
23335;DHT22;11839;48.598;8.870;2023-03-11T16:06:27;8.10;81.90
23335;DHT22;11839;48.598;8.870;2023-03-11T16:08:53;7.90;82.50
23335;DHT22;11839;48.598;8.870;2023-03-11T16:11:20;7.60;82.50
23335;DHT22;11839;48.598;8.870;2023-03-11T16:13:47;7.50;84.30